Time;durP1;ratioP1;P1;durP2;ratioP2;P2;SDS_P1;SDS_P2;PMS_P1;PMS_P2;Temp;Humidity;BMP_temperature;BMP_pressure;BME280_temperature;BME280_humidity;BME280_pressure;Samples;Min_cycle;Max_cycle;Signal;HPM_P1;HPM_P2
2022/05/09 00:00:09;;;;;;;1.35;1.25;;;14.30;49.20;;;;;;5071579;28;20045;-51
2022/05/09 00:02:39;;;;;;;3.25;1.63;;;14.30;50.30;;;;;;5071150;28;20050;-53
2022/05/09 00:05:13;;;;;;;3.13;1.92;;;14.30;49.40;;;;;;5070538;28;20098;-50
2022/05/09 00:07:40;;;;;;;2.83;2.10;;;14.20;49.40;;;;;;5064664;28;20040;-48
2022/05/09 00:10:07;;;;;;;2.05;1.67;;;14.20;49.30;;;;;;5070861;28;20128;-50
2022/05/09 00:12:40;;;;;;;2.95;1.60;;;14.10;49.40;;;;;;5070145;28;20060;-47
2022/05/09 00:15:10;;;;;;;1.70;1.52;;;14.10;49.40;;;;;;5070708;28;20024;-50
2022/05/09 00:17:41;;;;;;;4.68;1.80;;;14.10;49.50;;;;;;5065382;28;20093;-46
2022/05/09 00:20:11;;;;;;;2.13;1.92;;;14.00;50.00;;;;;;5070900;28;20553;-49
2022/05/09 00:22:52;;;;;;;2.08;1.73;;;14.00;49.30;;;;;;5070557;28;20055;-49
2022/05/09 00:25:21;;;;;;;1.85;1.75;;;14.00;50.10;;;;;;5070666;28;20032;-50
2022/05/09 00:27:48;;;;;;;4.45;1.92;;;13.90;49.60;;;;;;5069470;28;20045;-50
2022/05/09 00:30:17;;;;;;;2.13;1.90;;;13.90;49.70;;;;;;5072207;28;20033;-47
2022/05/09 00:32:45;;;;;;;2.80;1.65;;;13.80;49.60;;;;;;5070243;28;20446;-51
2022/05/09 00:35:16;;;;;;;2.10;1.67;;;13.80;49.70;;;;;;5068009;28;20504;-49
2022/05/09 00:37:47;;;;;;;3.47;1.52;;;13.70;49.80;;;;;;5069634;28;20419;-45
2022/05/09 00:40:17;;;;;;;2.08;1.90;;;13.70;49.80;;;;;;5070159;28;20423;-48
2022/05/09 00:43:02;;;;;;;1.30;1.20;;;13.70;50.10;;;;;;5069305;28;20052;-45
2022/05/09 00:45:29;;;;;;;4.25;1.88;;;13.70;50.00;;;;;;5069140;28;20396;-48
2022/05/09 00:47:56;;;;;;;2.00;1.80;;;13.60;50.20;;;;;;5071278;28;20048;-46
2022/05/09 00:50:29;;;;;;;2.35;1.55;;;13.60;50.40;;;;;;5070476;28;20040;-50
2022/05/09 00:53:06;;;;;;;3.47;1.60;;;13.60;50.60;;;;;;5069732;28;20036;-47
2022/05/09 00:55:42;;;;;;;3.97;2.10;;;13.50;50.70;;;;;;5070749;28;20086;-50
2022/05/09 00:58:21;;;;;;;2.20;1.60;;;13.50;51.00;;;;;;5070438;28;20036;-50
2022/05/09 01:00:51;;;;;;;4.20;2.15;;;13.50;51.20;;;;;;5051322;28;20056;-49
2022/05/09 01:03:27;;;;;;;1.98;1.83;;;13.40;50.50;;;;;;5070143;28;20052;-46
2022/05/09 01:05:53;;;;;;;2.92;1.85;;;13.40;51.20;;;;;;5069984;28;20064;-51
2022/05/09 01:08:22;;;;;;;2.90;1.80;;;13.40;50.60;;;;;;5071019;28;20527;-51
2022/05/09 01:10:49;;;;;;;2.65;1.88;;;13.30;50.80;;;;;;5068887;28;20033;-48
2022/05/09 01:13:24;;;;;;;3.10;2.15;;;13.30;50.70;;;;;;5068563;28;20044;-50
2022/05/09 01:15:54;;;;;;;3.33;2.25;;;13.30;51.10;;;;;;5070186;28;20033;-49
2022/05/09 01:18:23;;;;;;;2.97;2.63;;;13.30;51.10;;;;;;5069468;28;20094;-50
2022/05/09 01:20:56;;;;;;;3.25;2.10;;;13.30;51.30;;;;;;5069231;28;20067;-50
2022/05/09 01:23:22;;;;;;;;;;;13.20;51.50;;;;;;5076621;28;20044;-48
2022/05/09 01:25:49;;;;;;;2.97;2.42;;;13.30;51.10;;;;;;5069661;28;20539;-49
2022/05/09 01:28:17;;;;;;;3.78;2.75;;;13.20;50.70;;;;;;5070700;28;20694;-51
2022/05/09 01:30:55;;;;;;;2.92;2.13;;;13.20;51.10;;;;;;5069044;28;20036;-47
2022/05/09 01:33:39;;;;;;;2.33;2.13;;;13.20;52.00;;;;;;5068180;28;20499;-47
2022/05/09 01:36:14;;;;;;;3.88;2.55;;;13.20;52.60;;;;;;5069210;28;20048;-51
2022/05/09 01:38:51;;;;;;;3.08;2.35;;;13.20;51.70;;;;;;5069270;28;20041;-51
2022/05/09 01:41:21;;;;;;;3.72;2.25;;;13.10;51.90;;;;;;5066090;28;20504;-52
2022/05/09 01:43:57;;;;;;;4.60;2.70;;;13.20;51.80;;;;;;5062919;28;20041;-49
2022/05/09 01:46:26;;;;;;;3.47;2.15;;;13.10;51.60;;;;;;5049368;28;20040;-47
2022/05/09 01:51:45;;;;;;;2.05;1.77;;;13.00;51.60;;;;;;5062131;28;20492;-48
2022/05/09 01:54:13;;;;;;;2.60;2.03;;;13.00;51.60;;;;;;5070436;28;20079;-52
2022/05/09 01:56:43;;;;;;;4.18;2.60;;;13.00;51.80;;;;;;5066839;28;20090;-50
2022/05/09 01:59:13;;;;;;;3.05;2.60;;;13.00;51.70;;;;;;5070029;28;20075;-47
2022/05/09 02:01:48;;;;;;;2.65;2.45;;;12.90;52.10;;;;;;5061579;28;20459;-48
2022/05/09 02:04:23;;;;;;;3.95;2.67;;;12.90;51.90;;;;;;5069733;28;20519;-49
2022/05/09 02:06:54;;;;;;;3.15;2.35;;;12.90;51.90;;;;;;5068695;28;20064;-49
2022/05/09 02:09:21;;;;;;;3.75;2.33;;;12.90;51.80;;;;;;5070040;28;20064;-46
2022/05/09 02:11:55;;;;;;;3.08;2.03;;;12.90;51.90;;;;;;5069099;28;20037;-48
2022/05/09 02:14:25;;;;;;;;;;;12.80;52.10;;;;;;5070001;28;20066;-54
2022/05/09 02:16:54;;;;;;;2.80;2.00;;;12.90;51.80;;;;;;5067307;28;19924;-47
2022/05/09 02:19:23;;;;;;;3.75;2.55;;;12.90;51.30;;;;;;5069139;28;20478;-51
2022/05/09 02:21:57;;;;;;;4.25;2.50;;;12.80;51.50;;;;;;5068553;28;20076;-47
2022/05/09 02:24:24;;;;;;;2.38;2.15;;;12.80;51.70;;;;;;5068327;28;20036;-48
2022/05/09 02:26:51;;;;;;;4.00;2.53;;;12.70;51.60;;;;;;5068375;28;20090;-54
2022/05/09 02:29:17;;;;;;;2.70;2.50;;;12.70;51.80;;;;;;5069514;28;20068;-48
2022/05/09 02:31:47;;;;;;;2.53;2.30;;;12.70;51.90;;;;;;5068061;28;20040;-48
2022/05/09 02:34:14;;;;;;;2.65;2.38;;;12.60;51.90;;;;;;5053262;28;20114;-52
2022/05/09 02:36:44;;;;;;;2.90;2.15;;;12.60;52.00;;;;;;5067612;28;20074;-46
2022/05/09 02:39:11;;;;;;;3.30;2.83;;;12.60;52.00;;;;;;5069700;28;20078;-52
2022/05/09 02:41:40;;;;;;;4.43;2.28;;;12.60;52.10;;;;;;5050254;28;20063;-47
2022/05/09 02:44:17;;;;;;;;;;;;;;;;;;;;;
2022/05/09 02:46:44;;;;;;;3.13;2.50;;;12.50;52.20;;;;;;5063371;28;20037;-45
2022/05/09 02:49:15;;;;;;;3.08;2.47;;;12.50;52.20;;;;;;5086049;22;20336;-50
2022/05/09 02:51:43;;;;;;;4.45;2.95;;;12.50;52.30;;;;;;5028808;28;20038;-49
2022/05/09 02:54:10;;;;;;;7.15;2.70;;;12.40;52.30;;;;;;5040937;28;20049;-49
2022/05/09 02:56:39;;;;;;;2.42;2.05;;;12.40;52.50;;;;;;5051976;28;20045;-50
2022/05/09 02:59:06;;;;;;;3.40;2.25;;;12.40;52.50;;;;;;5053367;28;20127;-48
2022/05/09 03:01:33;;;;;;;5.18;3.08;;;12.40;52.60;;;;;;5049874;28;20075;-52
2022/05/09 03:06:57;;;;;;;3.03;2.50;;;12.30;52.60;;;;;;5046984;28;20518;-49
2022/05/09 03:09:36;;;;;;;2.95;2.53;;;12.30;52.50;;;;;;5052357;28;20044;-50
2022/05/09 03:12:04;;;;;;;4.22;2.50;;;12.20;53.20;;;;;;5048918;28;20037;-51
2022/05/09 03:14:38;;;;;;;5.40;2.22;;;12.20;52.70;;;;;;5052285;28;20079;-49
2022/05/09 03:17:08;;;;;;;3.95;2.83;;;12.20;53.00;;;;;;5052130;28;20127;-48
2022/05/09 03:19:38;;;;;;;2.45;2.15;;;12.10;52.70;;;;;;5053022;28;20047;-52
2022/05/09 03:22:10;;;;;;;3.65;3.03;;;12.10;52.80;;;;;;5051727;28;20041;-50
2022/05/09 03:24:43;;;;;;;3.13;2.50;;;12.10;53.10;;;;;;5054811;28;20642;-52
2022/05/09 03:27:12;;;;;;;6.70;2.92;;;12.10;53.20;;;;;;5052178;28;20037;-48
2022/05/09 03:29:38;;;;;;;4.60;3.22;;;12.00;52.70;;;;;;5052949;28;20095;-47
2022/05/09 03:32:08;;;;;;;3.85;2.53;;;12.00;52.90;;;;;;5050778;28;20099;-48
2022/05/09 03:34:35;;;;;;;3.38;2.47;;;11.90;52.90;;;;;;5041734;28;20037;-57
2022/05/09 03:37:09;;;;;;;3.97;2.83;;;11.90;53.00;;;;;;5052760;28;20049;-50
2022/05/09 03:39:36;;;;;;;2.50;2.22;;;11.90;52.90;;;;;;5052869;28;20044;-51
2022/05/09 03:42:03;;;;;;;3.70;2.85;;;11.90;52.90;;;;;;5053066;28;20500;-52
2022/05/09 03:44:30;;;;;;;3.10;2.40;;;11.90;53.00;;;;;;5047878;28;20087;-51
2022/05/09 03:46:59;;;;;;;4.03;2.67;;;11.80;52.90;;;;;;5032237;28;20037;-51
2022/05/09 03:49:27;;;;;;;5.32;2.78;;;11.80;53.00;;;;;;5050945;28;20511;-49
2022/05/09 03:51:56;;;;;;;2.90;2.65;;;11.80;53.10;;;;;;5047730;28;20036;-50
2022/05/09 03:54:23;;;;;;;3.45;2.45;;;11.80;53.10;;;;;;5049640;28;20044;-53
2022/05/09 03:56:50;;;;;;;2.53;2.33;;;11.80;53.20;;;;;;5051238;28;20780;-51
2022/05/09 03:59:19;;;;;;;3.25;2.60;;;11.70;53.30;;;;;;5051773;28;20041;-51
2022/05/09 04:01:46;;;;;;;5.03;2.92;;;11.70;53.30;;;;;;5051983;28;20045;-50
2022/05/09 04:04:13;;;;;;;3.65;2.70;;;11.70;53.40;;;;;;5034860;28;20175;-50
2022/05/09 04:06:42;;;;;;;3.17;2.70;;;11.60;53.50;;;;;;5050624;28;20036;-48
2022/05/09 04:09:09;;;;;;;4.25;2.58;;;11.60;53.60;;;;;;5049816;28;20563;-55
2022/05/09 04:11:36;;;;;;;3.75;2.47;;;11.70;53.80;;;;;;5043193;28;20107;-47
2022/05/09 04:14:05;;;;;;;4.95;3.20;;;11.60;53.80;;;;;;5050214;28;20115;-49
2022/05/09 04:16:49;;;;;;;3.67;2.90;;;11.60;54.00;;;;;;5049592;28;20045;-47
2022/05/09 04:19:18;;;;;;;4.53;2.70;;;11.60;54.10;;;;;;5047673;28;20137;-48
2022/05/09 04:21:45;;;;;;;3.17;2.88;;;11.60;54.20;;;;;;5050728;28;20111;-47
2022/05/09 04:24:12;;;;;;;3.13;2.83;;;11.60;54.30;;;;;;5051133;28;20073;-51
2022/05/09 04:26:40;;;;;;;7.47;3.70;;;11.60;54.40;;;;;;5050009;28;20083;-47
2022/05/09 04:29:07;;;;;;;4.88;2.50;;;11.60;54.60;;;;;;5050362;28;20061;-50
2022/05/09 04:31:34;;;;;;;2.75;2.10;;;11.60;54.60;;;;;;5049835;28;20041;-47
2022/05/09 04:34:00;;;;;;;4.15;3.10;;;11.60;54.70;;;;;;5052540;28;20044;-47
2022/05/09 04:36:28;;;;;;;3.65;2.70;;;11.60;54.80;;;;;;5049883;28;20049;-50
2022/05/09 04:38:56;;;;;;;3.42;2.65;;;11.60;55.00;;;;;;5051413;28;20033;-48
2022/05/09 04:41:24;;;;;;;3.13;2.72;;;11.60;55.00;;;;;;5049882;28;20044;-47
2022/05/09 04:43:50;;;;;;;3.30;3.00;;;11.60;55.10;;;;;;5046600;28;20453;-47
2022/05/09 04:46:17;;;;;;;4.38;3.10;;;11.70;55.30;;;;;;5048436;28;20053;-49
2022/05/09 04:48:44;;;;;;;3.00;2.55;;;11.70;55.50;;;;;;5029151;28;20041;-47
2022/05/09 04:51:12;;;;;;;4.78;3.08;;;11.80;55.70;;;;;;5048168;28;20091;-51
2022/05/09 04:53:38;;;;;;;3.70;2.55;;;11.70;55.70;;;;;;5050895;28;20049;-48
2022/05/09 04:56:05;;;;;;;4.55;3.20;;;11.80;55.70;;;;;;5065255;28;20080;-46
2022/05/09 04:58:33;;;;;;;3.20;2.72;;;11.80;56.00;;;;;;5048218;28;20071;-49
2022/05/09 05:00:59;;;;;;;3.70;3.40;;;11.80;56.10;;;;;;5048605;28;20064;-46
2022/05/09 05:03:27;;;;;;;5.00;3.60;;;11.80;56.80;;;;;;5037517;28;20124;-47
2022/05/09 05:05:54;;;;;;;4.43;3.40;;;11.90;56.50;;;;;;5046425;28;20045;-54
2022/05/09 05:08:22;;;;;;;3.28;2.90;;;12.00;56.70;;;;;;5049256;28;20049;-50
2022/05/09 05:10:53;;;;;;;5.38;3.50;;;12.00;56.70;;;;;;5048165;28;20111;-49
2022/05/09 05:13:22;;;;;;;5.38;3.53;;;12.10;56.80;;;;;;5054698;28;20548;-50
2022/05/09 05:15:49;;;;;;;5.70;3.58;;;12.10;56.90;;;;;;5047668;28;20045;-50
2022/05/09 05:18:24;;;;;;;4.07;3.67;;;12.10;57.10;;;;;;5044262;28;20110;-50
2022/05/09 05:20:50;;;;;;;3.50;3.20;;;12.20;58.00;;;;;;5046318;28;20575;-50
2022/05/09 05:23:18;;;;;;;6.78;4.00;;;12.20;57.30;;;;;;5047634;28;20597;-51
2022/05/09 05:25:46;;;;;;;4.75;3.70;;;12.30;57.50;;;;;;5046943;28;20073;-52
2022/05/09 05:28:14;;;;;;;7.60;4.15;;;12.30;57.50;;;;;;5047412;28;20051;-52
2022/05/09 05:30:41;;;;;;;4.72;4.28;;;12.40;57.70;;;;;;5044886;28;20095;-47
2022/05/09 05:33:07;;;;;;;6.05;3.97;;;12.50;57.70;;;;;;5047634;28;20413;-50
2022/05/09 05:35:34;;;;;;;5.55;3.60;;;12.50;57.80;;;;;;5047075;28;20424;-52
2022/05/09 05:38:01;;;;;;;6.30;3.92;;;12.60;57.90;;;;;;5047870;28;20116;-51
2022/05/09 05:40:28;;;;;;;7.60;4.18;;;12.70;58.10;;;;;;5037496;28;20068;-47
2022/05/09 05:42:54;;;;;;;10.50;5.07;;;12.70;58.20;;;;;;5042860;28;20083;-55
2022/05/09 05:45:23;;;;;;;8.10;4.93;;;12.80;58.20;;;;;;5043340;28;20079;-51
2022/05/09 05:47:51;;;;;;;7.05;4.40;;;12.80;58.20;;;;;;5049240;28;20036;-52
2022/05/09 05:50:20;;;;;;;8.80;5.00;;;12.90;58.30;;;;;;5047208;28;20037;-50
2022/05/09 05:52:47;;;;;;;7.88;5.28;;;13.00;58.40;;;;;;5042070;28;20137;-49
2022/05/09 05:55:19;;;;;;;7.93;4.93;;;13.10;58.50;;;;;;5039616;28;20047;-51
2022/05/09 05:57:46;;;;;;;9.13;5.30;;;13.10;58.10;;;;;;5049028;28;20048;-49
2022/05/09 06:00:21;;;;;;;6.47;4.28;;;13.20;58.20;;;;;;5047376;28;20086;-50
2022/05/09 06:02:48;;;;;;;5.50;4.50;;;13.30;58.90;;;;;;5048060;28;20045;-50
2022/05/09 06:05:17;;;;;;;8.13;5.28;;;13.30;58.30;;;;;;5045920;28;20457;-51
2022/05/09 06:07:46;;;;;;;6.75;4.57;;;13.40;58.10;;;;;;5049693;28;20095;-48
2022/05/09 06:10:15;;;;;;;9.52;5.50;;;13.50;58.10;;;;;;5047286;28;20147;-50
2022/05/09 06:12:43;;;;;;;7.35;4.95;;;13.60;57.70;;;;;;5040668;28;20515;-47
2022/05/09 06:15:25;;;;;;;8.23;5.07;;;13.70;57.60;;;;;;5047633;28;20049;-50
2022/05/09 06:17:52;;;;;;;;;;;13.70;57.50;;;;;;5047802;28;20117;-50
2022/05/09 06:20:19;;;;;;;9.57;4.75;;;13.80;57.30;;;;;;5046983;28;19925;-50
2022/05/09 06:22:46;;;;;;;5.35;4.70;;;13.90;56.60;;;;;;5033515;28;20508;-50
2022/05/09 06:25:17;;;;;;;6.57;4.93;;;14.00;56.70;;;;;;5024121;28;20472;-52
2022/05/09 06:27:45;;;;;;;7.43;5.35;;;14.00;56.70;;;;;;5048719;28;20472;-47
2022/05/09 06:30:14;;;;;;;5.40;4.90;;;14.10;56.70;;;;;;5048704;28;20041;-54
2022/05/09 06:32:41;;;;;;;6.18;4.30;;;14.20;56.50;;;;;;5045544;28;20052;-49
2022/05/09 06:35:23;;;;;;;7.60;4.55;;;14.30;56.60;;;;;;5048126;28;20041;-48
2022/05/09 06:37:54;;;;;;;8.27;5.00;;;14.40;56.70;;;;;;5032879;28;20488;-49
2022/05/09 06:40:21;;;;;;;7.20;4.78;;;14.40;56.20;;;;;;5048554;28;20071;-50
2022/05/09 06:42:51;;;;;;;7.80;4.82;;;14.50;56.40;;;;;;5049226;28;20489;-50
2022/05/09 06:45:18;;;;;;;8.85;5.38;;;14.60;56.40;;;;;;5049562;28;20403;-47
2022/05/09 06:47:50;;;;;;;6.40;4.45;;;14.70;56.40;;;;;;5047537;28;20404;-52
2022/05/09 06:50:26;;;;;;;6.90;4.97;;;14.70;56.70;;;;;;5049429;28;20037;-47
2022/05/09 06:52:56;;;;;;;6.75;4.80;;;14.80;56.50;;;;;;5049408;28;20601;-49
2022/05/09 06:55:42;;;;;;;6.75;4.68;;;14.90;56.30;;;;;;5045082;28;20079;-52
2022/05/09 06:58:11;;;;;;;9.35;5.65;;;15.00;56.30;;;;;;5048042;28;20869;-48
2022/05/09 07:00:38;;;;;;;6.40;4.63;;;15.00;56.20;;;;;;5047123;28;20064;-49
2022/05/09 07:03:06;;;;;;;8.27;5.20;;;15.10;55.90;;;;;;5049539;28;20496;-48
2022/05/09 07:05:33;;;;;;;9.38;4.82;;;15.20;55.60;;;;;;5045626;28;20037;-49
2022/05/09 07:07:59;;;;;;;7.85;5.00;;;15.20;55.60;;;;;;5047859;28;20048;-47
2022/05/09 07:10:28;;;;;;;5.20;4.70;;;15.30;55.60;;;;;;5055808;28;20103;-52
2022/05/09 07:12:56;;;;;;;11.15;5.68;;;15.40;55.70;;;;;;5048417;28;20045;-51
2022/05/09 07:15:26;;;;;;;13.75;5.65;;;15.50;55.80;;;;;;5045744;28;20106;-50
2022/05/09 07:17:53;;;;;;;6.38;4.70;;;15.50;55.50;;;;;;5047281;28;20496;-48
2022/05/09 07:20:22;;;;;;;5.88;3.92;;;15.60;55.50;;;;;;5047434;28;20091;-49
2022/05/09 07:22:55;;;;;;;4.95;4.05;;;15.70;55.20;;;;;;5050367;28;20045;-54
2022/05/09 07:25:23;;;;;;;;;;;15.80;55.20;;;;;;5044927;28;20045;-53
2022/05/09 07:27:50;;;;;;;7.07;4.47;;;15.90;54.80;;;;;;5045627;28;19920;-54
2022/05/09 07:30:20;;;;;;;7.57;5.13;;;15.90;54.50;;;;;;5047446;28;20564;-47
2022/05/09 07:32:47;;;;;;;6.82;4.30;;;16.00;54.70;;;;;;5048407;28;20116;-55
2022/05/09 07:35:16;;;;;;;6.85;4.30;;;16.10;54.70;;;;;;5032429;28;20111;-47
2022/05/09 07:37:43;;;;;;;7.05;4.07;;;16.10;54.50;;;;;;5039391;28;20045;-53
2022/05/09 07:40:12;;;;;;;6.55;4.38;;;16.20;54.50;;;;;;5046154;28;20056;-48
2022/05/09 07:42:44;;;;;;;6.13;4.18;;;16.30;54.50;;;;;;5046996;28;20045;-51
2022/05/09 07:45:13;;;;;;;7.07;3.95;;;16.40;54.30;;;;;;5048018;28;20033;-52
2022/05/09 07:47:40;;;;;;;9.35;4.75;;;16.40;54.20;;;;;;5051039;28;20041;-49
2022/05/09 07:50:09;;;;;;;6.03;4.45;;;16.50;54.20;;;;;;5049113;28;20053;-52
2022/05/09 07:52:36;;;;;;;5.57;4.43;;;16.60;54.60;;;;;;5051885;28;20041;-52
2022/05/09 07:55:04;;;;;;;6.60;4.72;;;16.60;54.20;;;;;;5047196;28;20497;-52
2022/05/09 07:57:31;;;;;;;6.72;4.45;;;16.70;54.20;;;;;;5051281;28;20121;-47
2022/05/09 07:59:59;;;;;;;6.10;4.40;;;16.80;54.10;;;;;;5048865;28;20098;-52
2022/05/09 08:02:27;;;;;;;8.48;4.30;;;16.80;54.00;;;;;;5048992;28;20540;-48
2022/05/09 08:04:53;;;;;;;8.50;3.90;;;16.90;54.20;;;;;;5044973;28;20048;-48
2022/05/09 08:07:20;;;;;;;9.65;4.60;;;17.00;54.00;;;;;;5051052;28;20404;-52
2022/05/09 08:09:49;;;;;;;6.60;4.53;;;17.10;54.20;;;;;;5048550;28;20036;-48
2022/05/09 08:12:16;;;;;;;9.90;4.38;;;17.10;54.60;;;;;;5027918;28;20119;-48
2022/05/09 08:14:43;;;;;;;6.65;4.15;;;17.20;54.80;;;;;;5047826;28;20080;-52
2022/05/09 08:17:11;;;;;;;4.50;3.42;;;17.30;54.10;;;;;;5050785;28;20037;-49
2022/05/09 08:19:39;;;;;;;7.13;4.50;;;17.40;53.60;;;;;;5029262;28;20504;-51
2022/05/09 08:22:07;;;;;;;7.25;3.53;;;17.50;53.70;;;;;;5051310;28;20067;-50
2022/05/09 08:24:42;;;;;;;9.73;3.72;;;17.50;53.90;;;;;;5043812;28;20514;-47
2022/05/09 08:27:09;;;;;;;6.35;3.80;;;17.60;53.70;;;;;;5047558;28;20045;-48
2022/05/09 08:29:36;;;;;;;6.93;3.80;;;17.70;53.50;;;;;;5048900;28;20045;-48
2022/05/09 08:32:03;;;;;;;10.32;4.50;;;17.70;53.40;;;;;;5050137;28;20033;-50
2022/05/09 08:34:34;;;;;;;10.82;4.57;;;17.80;53.50;;;;;;5039902;28;20037;-52
2022/05/09 08:37:01;;;;;;;7.10;3.78;;;17.90;53.70;;;;;;5051117;28;20040;-51
2022/05/09 08:39:27;;;;;;;9.57;4.05;;;18.00;53.40;;;;;;5048917;28;20797;-48
2022/05/09 08:41:57;;;;;;;5.85;3.30;;;18.00;53.00;;;;;;5049468;28;20094;-48
2022/05/09 08:44:43;;;;;;;6.93;2.83;;;18.10;53.20;;;;;;5049782;28;20107;-55
2022/05/09 08:47:49;;;;;;;6.55;3.00;;;18.30;53.30;;;;;;5051049;28;20041;-51
2022/05/09 08:50:24;;;;;;;4.65;2.78;;;18.30;52.70;;;;;;5047401;28;20045;-53
2022/05/09 08:53:06;;;;;;;9.35;2.95;;;18.40;53.20;;;;;;5049136;28;20468;-53
2022/05/09 08:55:38;;;;;;;6.25;2.50;;;18.50;52.30;;;;;;5039132;28;20583;-52
2022/05/09 08:58:20;;;;;;;7.45;3.30;;;18.60;52.10;;;;;;5047691;28;20044;-49
2022/05/09 09:00:52;;;;;;;7.43;2.97;;;18.70;52.20;;;;;;5046654;28;20462;-49
2022/05/09 09:03:20;;;;;;;4.78;2.58;;;18.80;52.00;;;;;;5053966;28;20055;-47
2022/05/09 09:05:51;;;;;;;7.03;2.65;;;18.90;51.70;;;;;;5006603;28;20119;-49
2022/05/09 09:08:39;;;;;;;3.78;2.40;;;18.90;51.20;;;;;;5011385;28;20545;-53
2022/05/09 09:11:46;;;;;;;8.00;3.75;;;19.00;51.00;;;;;;5007488;28;20444;-51
2022/05/09 09:14:42;;;;;;;5.68;2.45;;;19.10;52.20;;;;;;4987521;28;20631;-54
2022/05/09 09:17:46;;;;;;;5.60;2.75;;;19.20;51.70;;;;;;4974665;28;20483;-51
2022/05/09 09:20:55;;;;;;;6.05;2.75;;;19.30;51.40;;;;;;4995777;28;20046;-51
2022/05/09 09:23:31;;;;;;;8.05;3.45;;;19.30;51.80;;;;;;4989725;28;20042;-49
2022/05/09 09:26:08;;;;;;;11.18;3.47;;;19.40;51.10;;;;;;4969903;28;20495;-50
2022/05/09 09:28:44;;;;;;;11.15;3.45;;;19.50;51.10;;;;;;4988626;28;20093;-55
2022/05/09 09:31:11;;;;;;;5.90;3.95;;;19.60;51.30;;;;;;4990694;28;20074;-52
2022/05/09 09:33:50;;;;;;;7.28;3.80;;;19.60;50.80;;;;;;4989992;28;20122;-54
2022/05/09 09:36:20;;;;;;;8.48;3.17;;;19.70;50.60;;;;;;4990123;28;20542;-49
2022/05/09 09:39:01;;;;;;;7.32;3.10;;;19.80;50.30;;;;;;4989454;28;20101;-49
2022/05/09 09:41:28;;;;;;;7.03;2.85;;;19.80;50.00;;;;;;4989535;28;20093;-51
2022/05/09 09:44:17;;;;;;;10.93;4.35;;;19.90;50.30;;;;;;4988506;28;20073;-56
2022/05/09 09:47:08;;;;;;;6.75;2.92;;;20.00;50.50;;;;;;4984976;28;20042;-52
2022/05/09 09:49:45;;;;;;;6.68;3.13;;;20.00;50.30;;;;;;4989280;28;20053;-51
2022/05/09 09:52:32;;;;;;;8.20;3.45;;;20.10;50.40;;;;;;4990490;28;20623;-52
2022/05/09 09:55:08;;;;;;;6.10;3.65;;;20.20;50.30;;;;;;4987528;28;20038;-49
2022/05/09 09:57:37;;;;;;;4.47;3.20;;;20.30;50.10;;;;;;4992218;28;20043;-47
2022/05/09 10:00:24;;;;;;;7.82;3.15;;;20.30;50.20;;;;;;4990340;28;20038;-47
2022/05/09 10:02:53;;;;;;;5.30;3.20;;;20.40;50.10;;;;;;4988680;28;20043;-48
2022/05/09 10:05:33;;;;;;;7.80;3.50;;;20.50;50.50;;;;;;4986353;28;20106;-51
2022/05/09 10:08:22;;;;;;;9.40;2.83;;;20.50;50.70;;;;;;4970848;28;20042;-50
2022/05/09 10:11:05;;;;;;;4.35;3.05;;;20.60;51.50;;;;;;4981556;28;20042;-49
2022/05/09 10:13:48;;;;;;;7.70;3.10;;;20.70;50.40;;;;;;4987431;28;20042;-49
2022/05/09 10:16:33;;;;;;;5.30;3.67;;;20.80;50.80;;;;;;4983000;28;20514;-54
2022/05/09 10:19:03;;;;;;;4.65;3.67;;;20.80;50.10;;;;;;4986399;28;20069;-51
2022/05/09 10:27:22;;;;;;;7.60;3.42;;;21.10;50.50;;;;;;4987826;28;20167;-53
2022/05/09 10:29:56;;;;;;;7.90;3.20;;;21.20;50.30;;;;;;4969658;28;20039;-49
2022/05/09 10:32:32;;;;;;;6.90;4.03;;;21.20;50.00;;;;;;4969095;28;20039;-51
2022/05/09 10:35:08;;;;;;;7.72;3.58;;;21.30;49.70;;;;;;4988167;28;20096;-50
2022/05/09 10:37:51;;;;;;;5.63;4.35;;;21.40;50.10;;;;;;4981535;28;20038;-53
2022/05/09 10:40:36;;;;;;;6.45;4.75;;;21.40;49.30;;;;;;4989516;28;20451;-48
2022/05/09 10:43:13;;;;;;;8.15;4.38;;;21.50;49.80;;;;;;4984305;28;20042;-48
2022/05/09 10:45:45;;;;;;;8.60;5.63;;;21.60;51.10;;;;;;4987469;28;20125;-54
2022/05/09 10:48:14;;;;;;;5.97;4.40;;;21.70;50.10;;;;;;4989130;28;20562;-52
2022/05/09 10:51:21;;;;;;;5.57;4.07;;;21.70;50.10;;;;;;4988508;28;20053;-51
2022/05/09 10:54:18;;;;;;;7.65;4.50;;;21.80;50.60;;;;;;4987962;28;20090;-52
2022/05/09 10:56:53;;;;;;;10.90;3.90;;;22.00;50.70;;;;;;4971031;28;20050;-50
2022/05/09 10:59:25;;;;;;;5.13;4.63;;;22.10;50.60;;;;;;4989442;28;20132;-51
2022/05/09 11:02:14;;;;;;;10.30;4.38;;;22.20;49.50;;;;;;4988642;28;20070;-51
2022/05/09 11:04:40;;;;;;;6.20;3.95;;;22.30;50.00;;;;;;4986524;28;20779;-53
2022/05/09 11:07:27;;;;;;;6.18;4.40;;;22.40;50.10;;;;;;4990592;28;20038;-53
2022/05/09 11:10:22;;;;;;;4.85;3.60;;;22.50;49.50;;;;;;4987283;28;20101;-49
2022/05/09 11:13:08;;;;;;;6.70;4.80;;;22.60;48.80;;;;;;4987674;28;20057;-50
2022/05/09 11:15:53;;;;;;;6.43;4.50;;;22.70;48.00;;;;;;4989020;28;20042;-48
2022/05/09 11:18:39;;;;;;;9.40;4.70;;;22.80;47.90;;;;;;4989080;28;20049;-49
2022/05/09 11:21:22;;;;;;;6.95;3.75;;;22.90;48.00;;;;;;4991063;28;20107;-50
2022/05/09 11:24:16;;;;;;;11.05;4.45;;;23.00;48.40;;;;;;4991427;28;20094;-50
2022/05/09 11:27:11;;;;;;;7.80;4.57;;;23.10;47.20;;;;;;4989047;28;20097;-54
2022/05/09 11:30:22;;;;;;;6.63;4.25;;;23.20;47.10;;;;;;4990105;28;20116;-51
2022/05/09 11:33:07;;;;;;;4.75;3.90;;;23.30;46.50;;;;;;4985350;28;20070;-54
2022/05/09 11:35:36;;;;;;;4.47;3.65;;;23.40;48.10;;;;;;4991504;28;20097;-48
2022/05/09 11:38:06;;;;;;;6.13;4.38;;;23.50;47.70;;;;;;4991584;28;20035;-53
2022/05/09 11:40:45;;;;;;;6.55;4.15;;;23.70;46.90;;;;;;4991496;28;20108;-50
2022/05/09 11:43:35;;;;;;;6.15;4.28;;;23.80;46.60;;;;;;4974339;28;20046;-59
2022/05/09 11:46:29;;;;;;;4.90;4.05;;;24.00;46.70;;;;;;4982772;28;20443;-52
2022/05/09 11:49:22;;;;;;;4.25;3.80;;;24.10;46.30;;;;;;4978720;28;20045;-52
2022/05/09 11:51:55;;;;;;;5.20;4.28;;;24.30;45.30;;;;;;4968013;28;20046;-51
2022/05/09 11:54:41;;;;;;;9.30;4.40;;;24.50;45.40;;;;;;4979651;28;20034;-53
2022/05/09 11:57:30;;;;;;;7.15;4.28;;;24.60;44.60;;;;;;4989788;28;20051;-51
2022/05/09 12:00:01;;;;;;;5.18;4.03;;;24.80;45.00;;;;;;4971893;28;20042;-53
2022/05/09 12:02:45;;;;;;;4.75;3.33;;;24.90;45.00;;;;;;4990078;28;20046;-53
2022/05/09 12:05:29;;;;;;;8.02;4.63;;;25.10;45.00;;;;;;4968013;28;20042;-56
2022/05/09 12:07:56;;;;;;;5.07;3.63;;;25.30;43.20;;;;;;4987441;28;20114;-52
2022/05/09 12:10:30;;;;;;;4.22;3.75;;;25.50;44.10;;;;;;4976196;28;20518;-55
2022/05/09 12:13:05;;;;;;;5.40;3.47;;;25.60;44.00;;;;;;4972886;28;20051;-54
2022/05/09 12:15:33;;;;;;;7.45;4.45;;;25.90;43.80;;;;;;4969366;28;20046;-50
2022/05/09 12:18:05;;;;;;;5.50;3.78;;;26.10;43.80;;;;;;4987641;28;20042;-52
2022/05/09 12:20:38;;;;;;;;;;;26.40;42.80;;;;;;4977072;28;20038;-54
2022/05/09 12:23:11;;;;;;;4.80;3.45;;;26.50;43.40;;;;;;4974795;28;19921;-58
2022/05/09 12:25:48;;;;;;;5.45;3.97;;;26.70;41.60;;;;;;4978285;28;20038;-49
2022/05/09 12:28:18;;;;;;;5.05;3.78;;;26.90;41.30;;;;;;4985079;28;20045;-59
2022/05/09 12:31:25;;;;;;;6.90;4.53;;;27.00;40.90;;;;;;4971506;28;20096;-48
2022/05/09 12:33:53;;;;;;;8.45;4.75;;;27.10;40.40;;;;;;4963744;28;20154;-53
2022/05/09 12:36:27;;;;;;;4.97;4.38;;;27.10;40.00;;;;;;4976818;28;20078;-51
2022/05/09 12:38:59;;;;;;;6.60;4.00;;;27.20;39.80;;;;;;4976303;28;20128;-51
2022/05/09 12:41:30;;;;;;;5.82;4.30;;;27.20;40.10;;;;;;4988338;28;20042;-49
2022/05/09 12:44:13;;;;;;;5.43;3.53;;;27.20;39.70;;;;;;4972043;28;20725;-56
2022/05/09 12:46:50;;;;;;;4.93;3.83;;;27.20;39.50;;;;;;4984252;28;20486;-49
2022/05/09 12:49:21;;;;;;;6.97;3.70;;;27.20;39.60;;;;;;4971307;28;20391;-51
2022/05/09 12:51:52;;;;;;;4.38;3.92;;;27.10;39.80;;;;;;4983993;28;20054;-52
2022/05/09 12:54:22;;;;;;;5.03;4.07;;;27.10;39.80;;;;;;4974491;28;20551;-51
2022/05/09 12:56:59;;;;;;;5.95;4.05;;;27.10;39.40;;;;;;4988026;28;20503;-52
2022/05/09 12:59:45;;;;;;;5.40;4.32;;;27.00;39.60;;;;;;4972428;28;20046;-51
2022/05/09 13:02:21;;;;;;;7.28;4.40;;;26.90;39.90;;;;;;4974537;28;20510;-50
2022/05/09 13:05:09;;;;;;;6.00;4.15;;;26.90;40.10;;;;;;4970782;28;20042;-53
2022/05/09 13:07:59;;;;;;;4.65;4.05;;;26.80;40.10;;;;;;4990204;28;20101;-50
2022/05/09 13:10:28;;;;;;;5.65;3.80;;;26.70;40.00;;;;;;4954477;28;20061;-53
2022/05/09 13:13:00;;;;;;;5.25;3.70;;;26.70;40.40;;;;;;4981452;28;20039;-52
2022/05/09 13:15:27;;;;;;;4.10;3.63;;;26.60;39.80;;;;;;4972875;28;20077;-51
2022/05/09 13:18:00;;;;;;;4.53;3.83;;;26.60;40.30;;;;;;4997157;28;20112;-51
2022/05/09 13:20:31;;;;;;;4.43;4.03;;;26.80;40.60;;;;;;4974749;28;20038;-54
2022/05/09 13:23:05;;;;;;;5.60;3.42;;;26.90;41.20;;;;;;4989369;28;20498;-52
2022/05/09 13:25:41;;;;;;;4.55;3.42;;;27.10;40.10;;;;;;4974734;28;20077;-53
2022/05/09 13:28:14;;;;;;;3.85;3.13;;;27.30;40.40;;;;;;4965749;28;20046;-59